Time;durP1;ratioP1;P1;durP2;ratioP2;P2;SDS_P1;SDS_P2;PMS_P1;PMS_P2;Temp;Humidity;BMP_temperature;BMP_pressure;BME280_temperature;BME280_humidity;BME280_pressure;Samples;Min_cycle;Max_cycle;Signal;HPM_P1;HPM_P2
2023/12/08 00:01:42;;;;;;;;;;;2.70;1.00;;;;;;5013874;28;19913;-73
2023/12/08 00:04:08;;;;;;;;;;;2.70;1.00;;;;;;5019640;28;19913;-73
2023/12/08 00:06:49;;;;;;;;;;;2.70;1.00;;;;;;5015678;28;19914;-78
2023/12/08 00:09:18;;;;;;;;;;;;;;;;;;5025232;28;19916;-78
2023/12/08 00:18:01;;;;;;;;;;;2.70;1.00;;;;;;5027354;28;19916;-78
2023/12/08 00:20:37;;;;;;;;;;;;;;;;;;5029286;28;19997;-73
2023/12/08 00:23:07;;;;;;;;;;;2.80;1.00;;;;;;5014700;28;20346;-73
2023/12/08 00:25:33;;;;;;;;;;;;;;;;;;5016115;28;19909;-73
2023/12/08 00:28:07;;;;;;;;;;;2.90;1.00;;;;;;5034323;28;19913;-73
2023/12/08 00:30:33;;;;;;;;;;;2.90;1.00;;;;;;5017395;28;19956;-73
2023/12/08 00:32:58;;;;;;;;;;;2.90;1.00;;;;;;5013900;28;20350;-73
2023/12/08 00:35:24;;;;;;;;;;;2.90;1.00;;;;;;5017957;28;19913;-73
2023/12/08 00:37:50;;;;;;;;;;;3.00;1.00;;;;;;5033368;28;19909;-73
2023/12/08 00:40:16;;;;;;;;;;;3.00;1.00;;;;;;5020574;28;19939;-73
2023/12/08 00:42:42;;;;;;;;;;;;;;;;;;5018636;28;20340;-73
2023/12/08 00:45:07;;;;;;;;;;;2.90;1.00;;;;;;5027405;28;20008;-73
2023/12/08 00:47:33;;;;;;;;;;;2.90;1.00;;;;;;5019667;28;20004;-73
2023/12/08 00:49:59;;;;;;;;;;;2.90;1.00;;;;;;5027125;28;20321;-73
2023/12/08 00:52:25;;;;;;;;;;;;;;;;;;5014995;28;19919;-73
2023/12/08 00:54:55;;;;;;;;;;;3.00;1.00;;;;;;5027438;28;19922;-73
2023/12/08 00:57:20;;;;;;;;;;;3.00;1.00;;;;;;5023375;28;19920;-73
2023/12/08 00:59:46;;;;;;;;;;;2.90;1.00;;;;;;5025598;28;19914;-73
2023/12/08 01:02:12;;;;;;;;;;;;;;;;;;5013235;28;19914;-73
2023/12/08 01:04:43;;;;;;;;;;;2.90;1.00;;;;;;5018232;28;20319;-73
2023/12/08 01:07:09;;;;;;;;;;;;;;;;;;5016533;28;20365;-72
2023/12/08 01:09:35;;;;;;;;;;;3.00;1.00;;;;;;5026801;28;20130;-73
2023/12/08 01:12:00;;;;;;;;;;;3.00;1.00;;;;;;5022260;28;20062;-73
2023/12/08 01:14:26;;;;;;;;;;;3.00;1.00;;;;;;5015999;28;19909;-73
2023/12/08 01:16:52;;;;;;;;;;;;;;;;;;5022259;28;19909;-73
2023/12/08 01:19:18;;;;;;;;;;;3.00;1.00;;;;;;5015570;28;19928;-73
2023/12/08 01:21:49;;;;;;;;;;;3.00;1.00;;;;;;5022332;28;19999;-73
2023/12/08 01:24:19;;;;;;;;;;;;;;;;;;5015202;28;19917;-73
2023/12/08 01:26:49;;;;;;;;;;;3.00;1.00;;;;;;5027581;28;19909;-72
2023/12/08 01:29:14;;;;;;;;;;;3.00;1.00;;;;;;5028894;28;19910;-73
2023/12/08 01:31:40;;;;;;;;;;;3.00;1.00;;;;;;5017203;28;19921;-73
2023/12/08 01:34:13;;;;;;;;;;;3.00;1.00;;;;;;5021424;28;19992;-73
2023/12/08 01:36:49;;;;;;;;;;;;;;;;;;5027062;28;19914;-78
2023/12/08 01:39:19;;;;;;;;;;;2.90;1.00;;;;;;5017931;28;19961;-78
2023/12/08 01:41:49;;;;;;;;;;;2.90;1.00;;;;;;5017942;28;19909;-78
2023/12/08 01:44:19;;;;;;;;;;;2.90;1.00;;;;;;5017756;28;20266;-78
2023/12/08 01:46:45;;;;;;;;;;;3.00;1.00;;;;;;5015057;28;19913;-78
2023/12/08 01:49:19;;;;;;;;;;;2.90;1.00;;;;;;5017640;28;20004;-78
2023/12/08 01:51:49;;;;;;;;;;;2.90;1.00;;;;;;5017781;28;19925;-77
2023/12/08 01:54:15;;;;;;;;;;;2.90;1.00;;;;;;5017505;28;19915;-78
2023/12/08 01:56:49;;;;;;;;;;;2.90;1.00;;;;;;5017565;28;20029;-78
2023/12/08 01:59:14;;;;;;;;;;;2.90;1.00;;;;;;5016924;28;19916;-78
2023/12/08 02:01:40;;;;;;;;;;;2.90;1.00;;;;;;5016088;28;19913;-78
2023/12/08 02:07:19;;;;;;;;;;;2.90;1.00;;;;;;5013311;28;19914;-78
2023/12/08 02:09:49;;;;;;;;;;;2.90;1.00;;;;;;5017194;28;19916;-78
2023/12/08 02:12:19;;;;;;;;;;;2.90;1.00;;;;;;5016473;28;19917;-78
2023/12/08 02:14:50;;;;;;;;;;;3.00;1.00;;;;;;5022997;28;19924;-78
2023/12/08 02:17:24;;;;;;;;;;;3.00;1.00;;;;;;5021641;28;19923;-78
2023/12/08 02:20:19;;;;;;;;;;;3.00;1.00;;;;;;5023933;28;20403;-78
2023/12/08 02:22:49;;;;;;;;;;;3.00;1.00;;;;;;5017475;28;19910;-78
2023/12/08 02:25:19;;;;;;;;;;;3.00;1.00;;;;;;5027947;28;19914;-78
2023/12/08 02:27:49;;;;;;;;;;;3.00;1.00;;;;;;5016769;28;19919;-78
2023/12/08 02:33:21;;;;;;;;;;;3.00;1.00;;;;;;5015445;28;19960;-78
2023/12/08 02:35:49;;;;;;;;;;;3.10;1.00;;;;;;5020529;28;19914;-78
2023/12/08 02:38:20;;;;;;;;;;;3.10;1.00;;;;;;5021318;28;19913;-73
2023/12/08 02:40:46;;;;;;;;;;;3.10;1.00;;;;;;5017591;28;20036;-73
2023/12/08 02:43:11;;;;;;;;;;;3.10;1.00;;;;;;5017042;28;19962;-73
2023/12/08 02:45:37;;;;;;;;;;;;;;;;;;5023219;28;19909;-73
2023/12/08 02:48:03;;;;;;;;;;;3.10;1.00;;;;;;5022292;28;20064;-73
2023/12/08 02:50:28;;;;;;;;;;;3.20;1.00;;;;;;5017539;28;19961;-73
2023/12/08 03:02:03;;;;;;;;;;;3.30;1.00;;;;;;5030513;28;20315;-78
2023/12/08 03:04:49;;;;;;;;;;;3.20;1.00;;;;;;5016429;28;19910;-78
2023/12/08 03:07:19;;;;;;;;;;;3.30;1.00;;;;;;5029340;28;19949;-77
2023/12/08 03:15:55;;;;;;;;;;;3.30;1.00;;;;;;5010924;28;20379;-77
2023/12/08 03:18:20;;;;;;;;;;;3.30;1.00;;;;;;5031094;28;19964;-78
2023/12/08 03:23:49;;;;;;;;;;;3.30;1.00;;;;;;5015455;28;19917;-73
2023/12/08 03:26:19;;;;;;;;;;;3.40;1.00;;;;;;5021890;28;19913;-73
2023/12/08 03:28:45;;;;;;;;;;;;;;;;;;5015489;28;19910;-73
2023/12/08 03:31:22;;;;;;;;;;;3.40;1.00;;;;;;5015239;28;20003;-73
2023/12/08 03:33:49;;;;;;;;;;;3.40;1.00;;;;;;5012717;28;20373;-73
2023/12/08 03:36:15;;;;;;;;;;;;;;;;;;5015499;28;19933;-73
2023/12/08 03:38:43;;;;;;;;;;;3.40;1.00;;;;;;5031513;28;19913;-77
2023/12/08 03:41:13;;;;;;;;;;;3.50;1.00;;;;;;5020647;28;19909;-78
2023/12/08 03:43:49;;;;;;;;;;;3.50;1.00;;;;;;5015653;28;19910;-78
2023/12/08 03:46:14;;;;;;;;;;;3.40;1.00;;;;;;5015372;28;19909;-78
2023/12/08 03:49:01;;;;;;;;;;;3.30;1.00;;;;;;5030394;28;19917;-77
2023/12/08 03:52:01;;;;;;;;;;;3.40;1.00;;;;;;5015246;28;19924;-78
2023/12/08 03:54:26;;;;;;;;;;;3.40;1.00;;;;;;5019470;28;19917;-73
2023/12/08 03:56:55;;;;;;;;;;;;;;;;;;5016566;28;19910;-73
2023/12/08 03:59:25;;;;;;;;;;;3.40;1.00;;;;;;5013963;28;19922;-73
2023/12/08 04:02:01;;;;;;;;;;;3.40;1.00;;;;;;5015188;28;19916;-73
2023/12/08 04:04:26;;;;;;;;;;;3.30;1.00;;;;;;5013636;28;19909;-73
2023/12/08 04:06:52;;;;;;;;;;;;;;;;;;5012003;28;19916;-73
2023/12/08 04:09:18;;;;;;;;;;;3.40;1.00;;;;;;5026865;28;19936;-73
2023/12/08 04:11:43;;;;;;;;;;;3.40;1.00;;;;;;5016586;28;20000;-73
2023/12/08 04:14:09;;;;;;;;;;;3.30;1.00;;;;;;5014786;28;20329;-73
2023/12/08 04:16:35;;;;;;;;;;;3.40;1.00;;;;;;5014831;28;19914;-73
2023/12/08 04:19:00;;;;;;;;;;;3.30;1.00;;;;;;5023504;28;19909;-73
2023/12/08 04:21:26;;;;;;;;;;;3.40;1.00;;;;;;5013400;28;19920;-73
2023/12/08 04:29:58;;;;;;;;;;;3.40;1.00;;;;;;5014366;28;20329;-77
2023/12/08 04:32:37;;;;;;;;;;;3.50;1.00;;;;;;5014787;28;20000;-78
2023/12/08 04:37:47;;;;;;;;;;;;;;;;;;5021335;28;19916;-73
2023/12/08 04:40:19;;;;;;;;;;;3.50;1.00;;;;;;5022401;28;19909;-73
2023/12/08 04:42:45;;;;;;;;;;;3.50;1.00;;;;;;5014772;28;19910;-73
2023/12/08 04:45:13;;;;;;;;;;;3.50;1.00;;;;;;5021493;28;19921;-73
2023/12/08 04:47:39;;;;;;;;;;;3.50;1.00;;;;;;5015378;28;19952;-73
2023/12/08 04:50:05;;;;;;;;;;;3.50;1.00;;;;;;5012911;28;19967;-73
2023/12/08 04:52:32;;;;;;;;;;;3.50;1.00;;;;;;5014394;28;19953;-73
2023/12/08 04:54:58;;;;;;;;;;;3.50;1.00;;;;;;5026638;28;19940;-73
2023/12/08 04:57:24;;;;;;;;;;;3.50;1.00;;;;;;5023872;28;19913;-73
2023/12/08 04:59:49;;;;;;;;;;;3.40;1.00;;;;;;5011306;28;20321;-73
2023/12/08 05:02:15;;;;;;;;;;;3.50;1.00;;;;;;5011781;28;19920;-73
2023/12/08 05:04:41;;;;;;;;;;;3.50;1.00;;;;;;5014721;28;19914;-73
2023/12/08 05:07:07;;;;;;;;;;;3.50;1.00;;;;;;5013591;28;19995;-73
2023/12/08 05:09:33;;;;;;;;;;;3.50;1.00;;;;;;5014537;28;19913;-74
2023/12/08 05:11:58;;;;;;;;;;;3.50;1.00;;;;;;5014132;28;19920;-74
2023/12/08 05:14:49;;;;;;;;;;;3.50;1.00;;;;;;5025140;28;20335;-77
2023/12/08 05:17:37;;;;;;;;;;;3.60;1.00;;;;;;5007745;28;19913;-84
2023/12/08 05:23:19;;;;;;;;;;;3.50;1.00;;;;;;5013824;28;20001;-84
2023/12/08 05:25:45;;;;;;;;;;;3.50;1.00;;;;;;5016819;28;19915;-71
2023/12/08 05:28:11;;;;;;;;;;;3.50;1.00;;;;;;5018260;28;19920;-71
2023/12/08 05:30:36;;;;;;;;;;;3.50;1.00;;;;;;5009236;28;19929;-72
2023/12/08 05:33:02;;;;;;;;;;;3.50;1.00;;;;;;5007264;28;19944;-72
2023/12/08 05:35:29;;;;;;;;;;;;;;;;;;5013294;28;20265;-72
2023/12/08 05:37:54;;;;;;;;;;;3.50;1.00;;;;;;5013894;28;19909;-76
2023/12/08 05:40:34;;;;;;;;;;;3.40;1.00;;;;;;5017738;28;19913;-75
2023/12/08 05:43:00;;;;;;;;;;;;;;;;;;5013793;28;20282;-73
2023/12/08 05:45:26;;;;;;;;;;;3.40;1.00;;;;;;5019914;28;19921;-73
2023/12/08 05:47:55;;;;;;;;;;;;;;;;;;5018350;28;20238;-73
2023/12/08 05:50:21;;;;;;;;;;;3.20;1.00;;;;;;5025792;28;19987;-73
2023/12/08 05:52:47;;;;;;;;;;;;;;;;;;5016903;28;20368;-73
2023/12/08 05:55:13;;;;;;;;;;;3.10;1.00;;;;;;5014195;28;19964;-76
2023/12/08 06:00:42;;;;;;;;;;;3.10;1.00;;;;;;5013435;28;19959;-76
2023/12/08 06:03:13;;;;;;;;;;;3.10;1.00;;;;;;5013327;28;19921;-76
2023/12/08 06:06:01;;;;;;;;;;;3.10;1.00;;;;;;5013449;28;19968;-75
2023/12/08 06:08:43;;;;;;;;;;;;;;;;;;5013561;28;19918;-78
2023/12/08 06:11:27;;;;;;;;;;;3.10;1.00;;;;;;5021346;28;19920;-74
2023/12/08 06:14:01;;;;;;;;;;;3.10;1.00;;;;;;5015792;28;19914;-79
2023/12/08 06:16:27;;;;;;;;;;;3.10;1.00;;;;;;4997749;28;19914;-74
2023/12/08 06:18:55;;;;;;;;;;;3.10;1.00;;;;;;5010111;28;19913;-73
2023/12/08 06:21:20;;;;;;;;;;;3.00;1.00;;;;;;5015343;28;20289;-73
2023/12/08 06:23:46;;;;;;;;;;;3.00;1.00;;;;;;5015231;28;19920;-75
2023/12/08 06:26:31;;;;;;;;;;;2.90;1.00;;;;;;5012479;28;19917;-77
2023/12/08 06:28:56;;;;;;;;;;;3.00;1.00;;;;;;5016962;28;19916;-77
2023/12/08 06:31:22;;;;;;;;;;;3.00;1.00;;;;;;5016684;28;20284;-77
2023/12/08 06:37:19;;;;;;;;;;;3.10;1.00;;;;;;5016080;28;19936;-77
2023/12/08 06:39:49;;;;;;;;;;;3.10;1.00;;;;;;5016566;28;19913;-77
2023/12/08 06:45:43;;;;;;;;;;;3.10;1.00;;;;;;5016486;28;19920;-77
2023/12/08 06:48:08;;;;;;;;;;;3.00;1.00;;;;;;5016487;28;19921;-77
2023/12/08 06:50:43;;;;;;;;;;;;;;;;;;5016635;28;19944;-77
2023/12/08 06:53:25;;;;;;;;;;;3.00;1.00;;;;;;5019487;28;19920;-77
2023/12/08 06:55:51;;;;;;;;;;;3.00;1.00;;;;;;5017164;28;19913;-73
2023/12/08 06:58:17;;;;;;;;;;;3.10;1.00;;;;;;5017211;28;19916;-72
2023/12/08 07:00:43;;;;;;;;;;;3.00;1.00;;;;;;5015941;28;19913;-71
2023/12/08 07:03:08;;;;;;;;;;;3.00;1.00;;;;;;5015407;28;19960;-75
2023/12/08 07:05:34;;;;;;;;;;;3.00;1.00;;;;;;5016302;28;19910;-74
2023/12/08 07:11:19;;;;;;;;;;;2.90;1.00;;;;;;5016136;28;19972;-82
2023/12/08 07:13:45;;;;;;;;;;;;;;;;;;5015809;28;20253;-75
2023/12/08 07:16:13;;;;;;;;;;;3.00;1.00;;;;;;5015621;28;19909;-74
2023/12/08 07:18:43;;;;;;;;;;;2.90;1.00;;;;;;5017617;28;19921;-77
2023/12/08 07:21:37;;;;;;;;;;;2.90;1.00;;;;;;5015838;28;19913;-82
2023/12/08 07:27:13;;;;;;;;;;;2.90;1.00;;;;;;5015433;28;19940;-74
2023/12/08 07:29:39;;;;;;;;;;;2.90;1.00;;;;;;5015697;28;19910;-74
2023/12/08 07:32:04;;;;;;;;;;;3.00;1.00;;;;;;5015662;28;19920;-74
2023/12/08 07:34:30;;;;;;;;;;;2.90;1.00;;;;;;5022229;28;19964;-74
2023/12/08 07:37:01;;;;;;;;;;;2.90;1.00;;;;;;5021830;28;20012;-74
2023/12/08 07:39:27;;;;;;;;;;;3.00;1.00;;;;;;5017674;28;20230;-74
2023/12/08 07:41:53;;;;;;;;;;;3.00;1.00;;;;;;5016050;28;19910;-86
2023/12/08 07:47:21;;;;;;;;;;;3.00;1.00;;;;;;4996591;28;19944;-74
2023/12/08 07:49:49;;;;;;;;;;;3.00;1.00;;;;;;5015487;28;19917;-74
2023/12/08 07:52:15;;;;;;;;;;;;;;;;;;5014461;28;19953;-75
2023/12/08 07:54:49;;;;;;;;;;;3.00;1.00;;;;;;5016586;28;19909;-74
2023/12/08 07:57:31;;;;;;;;;;;;;;;;;;5014349;28;19917;-75
2023/12/08 08:03:02;;;;;;;;;;;3.00;1.00;;;;;;5015157;28;19975;-75
2023/12/08 08:05:37;;;;;;;;;;;3.00;1.00;;;;;;5015075;28;19964;-74
2023/12/08 08:08:03;;;;;;;;;;;3.10;1.00;;;;;;5017958;28;20305;-74
2023/12/08 08:10:37;;;;;;;;;;;3.10;1.00;;;;;;5020518;28;20013;-75
2023/12/08 08:13:14;;;;;;;;;;;3.10;1.00;;;;;;5016537;28;19913;-74
2023/12/08 08:15:39;;;;;;;;;;;3.20;1.00;;;;;;5015073;28;19949;-74
2023/12/08 08:18:07;;;;;;;;;;;3.20;1.00;;;;;;5027261;28;20442;-74
2023/12/08 08:20:33;;;;;;;;;;;3.30;1.00;;;;;;5016274;28;19956;-75
2023/12/08 08:22:58;;;;;;;;;;;3.20;1.00;;;;;;5015020;28;19941;-75
2023/12/08 08:25:24;;;;;;;;;;;3.30;1.00;;;;;;5015079;28;19909;-74
2023/12/08 08:28:01;;;;;;;;;;;3.30;1.00;;;;;;5020959;28;19913;-74
2023/12/08 08:30:27;;;;;;;;;;;3.40;1.00;;;;;;5014477;28;19913;-74
2023/12/08 08:32:52;;;;;;;;;;;3.30;1.00;;;;;;5021518;28;19972;-75
2023/12/08 08:35:31;;;;;;;;;;;3.30;1.00;;;;;;5019796;28;19919;-74
2023/12/08 08:38:07;;;;;;;;;;;;;;;;;;5012995;28;19956;-75
2023/12/08 08:40:37;;;;;;;;;;;3.40;1.00;;;;;;5013417;28;19917;-74
2023/12/08 08:43:07;;;;;;;;;;;3.40;1.00;;;;;;5014292;28;19916;-74
2023/12/08 08:45:44;;;;;;;;;;;3.50;1.00;;;;;;5014091;28;20334;-74
2023/12/08 08:48:10;;;;;;;;;;;;;;;;;;5028557;28;19929;-73
2023/12/08 08:50:35;;;;;;;;;;;3.50;1.00;;;;;;5014353;28;19917;-73
2023/12/08 08:53:01;;;;;;;;;;;3.50;1.00;;;;;;5013942;28;20246;-73
2023/12/08 08:55:27;;;;;;;;;;;3.50;1.00;;;;;;5014604;28;19914;-73
2023/12/08 08:57:53;;;;;;;;;;;3.60;1.00;;;;;;5012513;28;19921;-73
2023/12/08 09:00:21;;;;;;;;;;;3.60;1.00;;;;;;5014482;28;19909;-73
2023/12/08 09:03:02;;;;;;;;;;;3.60;1.00;;;;;;5014284;28;20401;-74
2023/12/08 09:05:27;;;;;;;;;;;3.60;1.00;;;;;;5013640;28;20426;-73
2023/12/08 09:07:54;;;;;;;;;;;3.60;1.00;;;;;;5014080;28;19909;-71
2023/12/08 09:10:20;;;;;;;;;;;3.70;1.00;;;;;;5014019;28;19963;-75
2023/12/08 09:12:46;;;;;;;;;;;3.70;1.00;;;;;;5014063;28;19953;-71
2023/12/08 09:15:13;;;;;;;;;;;3.70;1.00;;;;;;5013225;28;19947;-71
2023/12/08 09:17:39;;;;;;;;;;;3.70;1.00;;;;;;5013177;28;19921;-71
2023/12/08 09:20:12;;;;;;;;;;;3.70;1.00;;;;;;5014114;28;20362;-71
2023/12/08 09:22:38;;;;;;;;;;;;;;;;;;5013940;28;20395;-71
2023/12/08 09:25:04;;;;;;;;;;;3.70;1.00;;;;;;5013736;28;19909;-72
2023/12/08 09:27:30;;;;;;;;;;;;;;;;;;5013573;28;20013;-71
2023/12/08 09:29:55;;;;;;;;;;;3.50;1.00;;;;;;5013572;28;19967;-71
2023/12/08 09:32:50;;;;;;;;;;;3.50;1.00;;;;;;5014255;28;19945;-85
2023/12/08 09:35:19;;;;;;;;;;;3.60;1.00;;;;;;5013856;28;19914;-73
2023/12/08 09:37:44;;;;;;;;;;;3.70;1.00;;;;;;5013793;28;19959;-72
2023/12/08 09:40:16;;;;;;;;;;;3.70;1.00;;;;;;5013023;28;19949;-73
2023/12/08 09:42:57;;;;;;;;;;;3.70;1.00;;;;;;5014076;28;20335;-76
2023/12/08 09:45:31;;;;;;;;;;;3.70;1.00;;;;;;5013031;28;19959;-76
2023/12/08 09:47:57;;;;;;;;;;;3.70;1.00;;;;;;5017939;28;19930;-76
2023/12/08 09:50:38;;;;;;;;;;;3.70;1.00;;;;;;5017974;28;19914;-76
2023/12/08 09:53:31;;;;;;;;;;;3.70;1.00;;;;;;5017567;28;19968;-77
2023/12/08 09:55:57;;;;;;;;;;;;;;;;;;5017441;28;19913;-73
2023/12/08 09:58:25;;;;;;;;;;;3.80;1.00;;;;;;5017055;28;19910;-72
2023/12/08 10:00:51;;;;;;;;;;;3.70;1.00;;;;;;5017144;28;19909;-72
2023/12/08 10:03:16;;;;;;;;;;;3.80;1.00;;;;;;5016609;28;19917;-72
2023/12/08 10:05:42;;;;;;;;;;;3.80;1.00;;;;;;5017422;28;19909;-72
2023/12/08 10:08:14;;;;;;;;;;;3.90;1.00;;;;;;5017148;28;19916;-73
2023/12/08 10:10:40;;;;;;;;;;;3.90;1.00;;;;;;5016920;28;20327;-73
2023/12/08 10:13:06;;;;;;;;;;;3.90;1.00;;;;;;5016969;28;19921;-77
2023/12/08 10:15:40;;;;;;;;;;;3.90;1.00;;;;;;5017515;28;19959;-76
2023/12/08 10:18:06;;;;;;;;;;;4.00;1.00;;;;;;5017202;28;19913;-77
2023/12/08 10:20:37;;;;;;;;;;;4.00;1.00;;;;;;5016499;28;19928;-76
2023/12/08 10:23:31;;;;;;;;;;;4.00;1.00;;;;;;5017196;28;20004;-77
2023/12/08 10:25:57;;;;;;;;;;;4.10;1.00;;;;;;4997183;28;19992;-76
2023/12/08 10:28:23;;;;;;;;;;;4.20;1.00;;;;;;5010521;28;20000;-72
2023/12/08 10:30:50;;;;;;;;;;;4.20;1.00;;;;;;5014765;28;19918;-73
2023/12/08 10:33:23;;;;;;;;;;;4.20;1.00;;;;;;5016567;28;19909;-73
2023/12/08 10:35:50;;;;;;;;;;;4.30;1.00;;;;;;5016745;28;19988;-73
2023/12/08 10:38:16;;;;;;;;;;;4.30;1.00;;;;;;5016463;28;19910;-73
2023/12/08 10:40:42;;;;;;;;;;;;;;;;;;5015828;28;20016;-73
2023/12/08 10:43:07;;;;;;;;;;;4.40;1.00;;;;;;5015396;28;19959;-73
2023/12/08 10:45:33;;;;;;;;;;;4.50;1.00;;;;;;5013287;28;19960;-73
2023/12/08 10:47:59;;;;;;;;;;;4.30;1.00;;;;;;5016311;28;20353;-72
2023/12/08 10:50:26;;;;;;;;;;;4.30;1.00;;;;;;5016475;28;19916;-73
2023/12/08 10:52:52;;;;;;;;;;;4.30;1.00;;;;;;5016336;28;19909;-73
2023/12/08 10:55:17;;;;;;;;;;;4.30;1.00;;;;;;5016427;28;19968;-73
2023/12/08 10:57:45;;;;;;;;;;;4.40;1.00;;;;;;5015358;28;19920;-77
2023/12/08 11:03:19;;;;;;;;;;;4.50;1.00;;;;;;5016415;28;19917;-77
2023/12/08 11:09:07;;;;;;;;;;;4.70;1.00;;;;;;5019373;28;19960;-77
2023/12/08 11:11:49;;;;;;;;;;;4.70;1.00;;;;;;5016161;28;20253;-75
2023/12/08 11:17:36;;;;;;;;;;;4.80;1.00;;;;;;5015369;28;20285;-80
2023/12/08 11:20:13;;;;;;;;;;;4.80;1.00;;;;;;5015807;28;19932;-79
2023/12/08 11:28:54;;;;;;;;;;;4.90;1.00;;;;;;5016542;28;19916;-77
2023/12/08 11:31:58;;;;;;;;;;;4.90;1.00;;;;;;5015796;28;20025;-80
2023/12/08 11:37:46;;;;;;;;;;;5.00;1.00;;;;;;4975953;28;19970;-82
2023/12/08 11:40:25;;;;;;;;;;;5.00;1.00;;;;;;4996765;28;20005;-76
2023/12/08 11:43:08;;;;;;;;;;;5.00;1.00;;;;;;4992681;28;19920;-76
2023/12/08 11:48:37;;;;;;;;;;;5.00;1.00;;;;;;4974204;28;20017;-75
2023/12/08 11:53:50;;;;;;;;;;;4.90;1.00;;;;;;4973697;28;19921;-86
2023/12/08 11:59:49;;;;;;;;;;;4.80;1.00;;;;;;4987589;28;19920;-86
2023/12/08 12:08:20;;;;;;;;;;;;;;;;;;4995606;28;19972;-73
2023/12/08 12:10:51;;;;;;;;;;;4.80;1.00;;;;;;5009404;28;19930;-73
2023/12/08 12:13:22;;;;;;;;;;;4.80;1.00;;;;;;5040086;28;19940;-73
2023/12/08 12:15:48;;;;;;;;;;;4.90;1.00;;;;;;5017639;28;19909;-73
2023/12/08 12:18:13;;;;;;;;;;;4.90;1.00;;;;;;5008906;28;20439;-73
2023/12/08 12:20:39;;;;;;;;;;;4.90;1.00;;;;;;5014714;28;19932;-73
2023/12/08 12:23:07;;;;;;;;;;;4.90;1.00;;;;;;5014597;28;19914;-73
2023/12/08 12:25:33;;;;;;;;;;;4.90;1.00;;;;;;5014308;28;20369;-73
2023/12/08 12:28:02;;;;;;;;;;;4.90;1.00;;;;;;5013549;28;19920;-73
2023/12/08 12:30:27;;;;;;;;;;;4.80;1.00;;;;;;5014095;28;19923;-73
2023/12/08 12:32:53;;;;;;;;;;;4.90;1.00;;;;;;5015072;28;19909;-73
2023/12/08 12:35:18;;;;;;;;;;;4.90;1.00;;;;;;5014219;28;19913;-73
2023/12/08 12:37:44;;;;;;;;;;;4.90;1.00;;;;;;5020108;28;19913;-73
2023/12/08 12:40:13;;;;;;;;;;;4.90;1.00;;;;;;5016861;28;19913;-74
2023/12/08 12:46:00;;;;;;;;;;;4.90;1.00;;;;;;5013688;28;20416;-78
2023/12/08 12:48:26;;;;;;;;;;;4.90;1.00;;;;;;5027445;28;19929;-78
2023/12/08 12:50:51;;;;;;;;;;;4.90;1.00;;;;;;5007125;28;19921;-78
2023/12/08 12:53:19;;;;;;;;;;;4.90;1.00;;;;;;5014473;28;19952;-78
2023/12/08 12:56:04;;;;;;;;;;;5.00;1.00;;;;;;5014530;28;20264;-78
2023/12/08 13:02:10;;;;;;;;;;;5.00;1.00;;;;;;5014153;28;19955;-79
2023/12/08 13:04:49;;;;;;;;;;;5.00;1.00;;;;;;5014154;28;19913;-78
2023/12/08 13:07:14;;;;;;;;;;;4.90;1.00;;;;;;5013478;28;19909;-79
2023/12/08 13:09:49;;;;;;;;;;;4.90;1.00;;;;;;5013202;28;19941;-78
2023/12/08 13:12:37;;;;;;;;;;;4.90;1.00;;;;;;5014153;28;20500;-79
2023/12/08 13:15:03;;;;;;;;;;;4.90;1.00;;;;;;5010719;28;20320;-73
2023/12/08 13:17:29;;;;;;;;;;;4.90;1.00;;;;;;5013994;28;19909;-73
2023/12/08 13:19:54;;;;;;;;;;;4.90;1.00;;;;;;5015052;28;20318;-73
2023/12/08 13:22:20;;;;;;;;;;;5.00;1.00;;;;;;5017602;28;19910;-74
2023/12/08 13:24:55;;;;;;;;;;;5.00;1.00;;;;;;5018008;28;19913;-73
2023/12/08 13:27:25;;;;;;;;;;;5.00;1.00;;;;;;5017907;28;19910;-73
2023/12/08 13:29:51;;;;;;;;;;;5.00;1.00;;;;;;5017891;28;19921;-74
2023/12/08 13:32:25;;;;;;;;;;;5.00;1.00;;;;;;5016479;28;19918;-75
2023/12/08 13:34:51;;;;;;;;;;;5.00;1.00;;;;;;5013970;28;19956;-74
2023/12/08 13:37:19;;;;;;;;;;;5.00;1.00;;;;;;5016040;28;19921;-74
2023/12/08 13:39:49;;;;;;;;;;;5.10;1.00;;;;;;5019707;28;20355;-73
2023/12/08 13:42:15;;;;;;;;;;;5.00;1.00;;;;;;5020985;28;19913;-74
2023/12/08 13:44:40;;;;;;;;;;;5.10;1.00;;;;;;5014354;28;19913;-73
2023/12/08 13:47:06;;;;;;;;;;;5.20;1.00;;;;;;5012969;28;19917;-73
2023/12/08 13:49:32;;;;;;;;;;;5.20;1.00;;;;;;5018603;28;19922;-73
2023/12/08 13:51:58;;;;;;;;;;;;;;;;;;5019943;28;19925;-72
2023/12/08 13:54:23;;;;;;;;;;;5.20;1.00;;;;;;5020824;28;19913;-73
2023/12/08 13:56:49;;;;;;;;;;;5.20;1.00;;;;;;5020053;28;19921;-73
2023/12/08 13:59:14;;;;;;;;;;;5.20;1.00;;;;;;5017270;28;19913;-76
2023/12/08 14:02:02;;;;;;;;;;;5.10;1.00;;;;;;5017486;28;19916;-75
2023/12/08 14:04:27;;;;;;;;;;;5.10;1.00;;;;;;5030608;28;19909;-76
2023/12/08 14:06:55;;;;;;;;;;;;;;;;;;5016847;28;19917;-75
2023/12/08 14:12:25;;;;;;;;;;;5.20;1.00;;;;;;5016973;28;19920;-79
2023/12/08 14:15:05;;;;;;;;;;;5.10;1.00;;;;;;5004531;28;19917;-77
2023/12/08 14:17:31;;;;;;;;;;;5.10;1.00;;;;;;5021977;28;19971;-76
2023/12/08 14:19:56;;;;;;;;;;;5.10;1.00;;;;;;5013351;28;19917;-77
2023/12/08 14:22:43;;;;;;;;;;;5.10;1.00;;;;;;5014962;28;19921;-76
2023/12/08 14:25:14;;;;;;;;;;;5.10;1.00;;;;;;5012966;28;20004;-76
2023/12/08 14:30:43;;;;;;;;;;;5.00;1.00;;;;;;5016369;28;19921;-73
2023/12/08 14:33:08;;;;;;;;;;;5.10;1.00;;;;;;5015771;28;19913;-72
2023/12/08 14:35:34;;;;;;;;;;;5.10;1.00;;;;;;5016692;28;19945;-73
2023/12/08 14:38:00;;;;;;;;;;;5.10;1.00;;;;;;5015424;28;19916;-72
2023/12/08 14:40:26;;;;;;;;;;;;;;;;;;5018702;28;20267;-72
2023/12/08 14:42:53;;;;;;;;;;;5.20;1.00;;;;;;5018474;28;19952;-74
2023/12/08 14:45:18;;;;;;;;;;;5.20;1.00;;;;;;5014659;28;19914;-73
2023/12/08 14:47:45;;;;;;;;;;;5.00;1.00;;;;;;5012522;28;19921;-74
2023/12/08 14:50:11;;;;;;;;;;;4.90;1.00;;;;;;5015649;28;20376;-74
2023/12/08 14:52:37;;;;;;;;;;;4.90;1.00;;;;;;5018955;28;19929;-74
2023/12/08 14:55:07;;;;;;;;;;;4.90;1.00;;;;;;5020562;28;19917;-73
2023/12/08 14:57:33;;;;;;;;;;;;;;;;;;5016159;28;20261;-72
2023/12/08 14:59:59;;;;;;;;;;;4.90;1.00;;;;;;5015789;28;20276;-77
2023/12/08 15:02:25;;;;;;;;;;;5.00;1.00;;;;;;5015486;28;19913;-76
2023/12/08 15:05:13;;;;;;;;;;;4.90;1.00;;;;;;5016149;28;19913;-77
2023/12/08 15:07:43;;;;;;;;;;;4.90;1.00;;;;;;5016181;28;19921;-76
2023/12/08 15:10:09;;;;;;;;;;;4.90;1.00;;;;;;5016522;28;20005;-76
2023/12/08 15:15:38;;;;;;;;;;;5.00;1.00;;;;;;5015048;28;20384;-76
2023/12/08 15:18:03;;;;;;;;;;;5.00;1.00;;;;;;5016368;28;19914;-75
2023/12/08 15:20:55;;;;;;;;;;;5.00;1.00;;;;;;5014488;28;19913;-76
2023/12/08 15:23:39;;;;;;;;;;;5.00;1.00;;;;;;5026592;28;20310;-77
2023/12/08 15:26:08;;;;;;;;;;;5.00;1.00;;;;;;5015612;28;20412;-76
2023/12/08 15:28:37;;;;;;;;;;;5.00;1.00;;;;;;5016352;28;19910;-76
2023/12/08 15:34:06;;;;;;;;;;;4.90;1.00;;;;;;5020084;28;19920;-75
2023/12/08 15:36:38;;;;;;;;;;;4.90;1.00;;;;;;5024444;28;19909;-75
2023/12/08 15:39:05;;;;;;;;;;;4.90;1.00;;;;;;5015816;28;19948;-75
2023/12/08 15:41:49;;;;;;;;;;;4.90;1.00;;;;;;5003951;28;19921;-76
2023/12/08 15:44:15;;;;;;;;;;;4.90;1.00;;;;;;5004136;28;19914;-75
2023/12/08 15:46:40;;;;;;;;;;;4.90;1.00;;;;;;5014585;28;20380;-75
2023/12/08 15:49:25;;;;;;;;;;;4.90;1.00;;;;;;5013778;28;20036;-76
2023/12/08 15:52:02;;;;;;;;;;;4.90;1.00;;;;;;5015298;28;19920;-76
2023/12/08 15:54:49;;;;;;;;;;;4.90;1.00;;;;;;5029022;28;19920;-75
2023/12/08 15:57:19;;;;;;;;;;;4.90;1.00;;;;;;5014052;28;19925;-75
2023/12/08 15:59:46;;;;;;;;;;;;;;;;;;5015871;28;20345;-73
2023/12/08 16:02:37;;;;;;;;;;;4.90;1.00;;;;;;5030072;28;19917;-80
2023/12/08 16:11:09;;;;;;;;;;;5.00;1.00;;;;;;5014586;28;19921;-85
2023/12/08 16:16:38;;;;;;;;;;;4.90;1.00;;;;;;5004549;28;20008;-87
2023/12/08 16:27:36;;;;;;;;;;;5.00;1.00;;;;;;5013972;28;19932;-80
2023/12/08 16:36:07;;;;;;;;;;;4.90;1.00;;;;;;5004655;28;20570;-78
2023/12/08 16:39:04;;;;;;;;;;;5.00;1.00;;;;;;5013677;28;19910;-77
2023/12/08 16:41:32;;;;;;;;;;;5.00;1.00;;;;;;5022661;28;19921;-75
2023/12/08 16:44:07;;;;;;;;;;;;;;;;;;5019960;28;19916;-75
2023/12/08 16:46:37;;;;;;;;;;;5.00;1.00;;;;;;4997598;28;19928;-74
2023/12/08 16:49:03;;;;;;;;;;;5.00;1.00;;;;;;5013406;28;19921;-74
2023/12/08 16:51:29;;;;;;;;;;;5.00;1.00;;;;;;5015225;28;19917;-74
2023/12/08 16:54:01;;;;;;;;;;;4.90;1.00;;;;;;5014303;28;20246;-75
2023/12/08 16:56:31;;;;;;;;;;;5.00;1.00;;;;;;5013761;28;20376;-73
2023/12/08 16:59:13;;;;;;;;;;;;;;;;;;5018111;28;20000;-75
2023/12/08 17:01:39;;;;;;;;;;;5.00;1.00;;;;;;5018164;28;19959;-75
2023/12/08 17:04:07;;;;;;;;;;;5.00;1.00;;;;;;5031271;28;19918;-75
2023/12/08 17:06:33;;;;;;;;;;;4.90;1.00;;;;;;5025916;28;20377;-75
2023/12/08 17:08:58;;;;;;;;;;;4.90;1.00;;;;;;5014351;28;19910;-75
2023/12/08 17:11:24;;;;;;;;;;;4.90;1.00;;;;;;5025950;28;19917;-75
2023/12/08 17:14:13;;;;;;;;;;;4.90;1.00;;;;;;5015542;28;19910;-76
2023/12/08 17:16:49;;;;;;;;;;;4.90;1.00;;;;;;5009157;28;19913;-76
2023/12/08 17:19:37;;;;;;;;;;;4.90;1.00;;;;;;5018026;28;19916;-75
2023/12/08 17:22:03;;;;;;;;;;;4.90;1.00;;;;;;4994699;28;19910;-75
2023/12/08 17:24:37;;;;;;;;;;;5.00;1.00;;;;;;5019642;28;19913;-80
2023/12/08 17:30:06;;;;;;;;;;;5.00;1.00;;;;;;5013813;28;19960;-78
2023/12/08 17:35:35;;;;;;;;;;;4.80;1.00;;;;;;5011651;28;19920;-82
2023/12/08 17:41:03;;;;;;;;;;;4.80;1.00;;;;;;5014144;28;19917;-82
2023/12/08 17:44:01;;;;;;;;;;;4.80;1.00;;;;;;5022093;28;19913;-82